createdAt,value
2018-09-30T00:00:38.019Z,44.30
2018-09-30T00:03:05.096Z,44.40
2018-09-30T00:05:32.199Z,44.30
2018-09-30T00:07:59.315Z,44.40
2018-09-30T00:10:26.403Z,44.30
2018-09-30T00:12:53.535Z,44.40
2018-09-30T00:15:20.612Z,44.40
2018-09-30T00:17:47.689Z,44.40
2018-09-30T00:20:14.776Z,44.30
2018-09-30T00:22:41.883Z,44.40
2018-09-30T00:25:14.596Z,44.30
2018-09-30T00:27:41.695Z,44.40
2018-09-30T00:30:08.784Z,44.40
2018-09-30T00:32:35.867Z,44.40
2018-09-30T00:35:02.953Z,44.30
2018-09-30T00:37:30.044Z,44.30
2018-09-30T00:39:57.123Z,44.30
2018-09-30T00:42:24.247Z,44.30
2018-09-30T00:44:51.339Z,44.30
2018-09-30T00:47:18.428Z,44.30
2018-09-30T00:49:45.503Z,44.30
2018-09-30T00:52:12.595Z,44.10
2018-09-30T00:54:39.667Z,44.20
2018-09-30T00:57:06.743Z,44.20
2018-09-30T00:59:33.823Z,44.30
2018-09-30T01:02:00.920Z,44.20
2018-09-30T01:04:27.994Z,44.30
2018-09-30T01:06:55.103Z,44.20
2018-09-30T01:09:22.174Z,44.10
2018-09-30T01:11:49.276Z,44.20
2018-09-30T01:14:16.368Z,44.90
2018-09-30T01:16:43.439Z,44.10
2018-09-30T01:19:10.536Z,44.20
2018-09-30T01:21:37.627Z,44.10
2018-09-30T01:24:04.850Z,44.20
2018-09-30T01:26:31.928Z,44.10
2018-09-30T01:28:59.211Z,44.20
2018-09-30T01:31:26.305Z,44.20
2018-09-30T01:33:53.559Z,44.20
2018-09-30T01:36:20.635Z,44.20
2018-09-30T01:38:47.752Z,44.10
2018-09-30T01:41:14.890Z,44.20
2018-09-30T01:43:41.979Z,44.10
2018-09-30T01:46:09.098Z,44.20
2018-09-30T01:48:36.179Z,44.10
2018-09-30T01:51:03.265Z,44.10
2018-09-30T01:53:30.362Z,44.10
2018-09-30T01:55:57.462Z,44.20
2018-09-30T01:58:24.527Z,44.20
2018-09-30T02:00:51.614Z,44.10
2018-09-30T02:03:18.691Z,44.10
2018-09-30T02:05:45.797Z,44.10
2018-09-30T02:08:12.867Z,44.10
2018-09-30T02:10:40.027Z,44.20
2018-09-30T02:13:07.104Z,44.10
2018-09-30T02:15:34.207Z,44.10
2018-09-30T02:18:01.279Z,44.10
2018-09-30T02:20:28.548Z,44.20
2018-09-30T02:22:55.640Z,44.10
2018-09-30T02:25:22.731Z,44.10
2018-09-30T02:27:49.803Z,44.10
2018-09-30T02:30:16.880Z,44.10
2018-09-30T02:32:43.967Z,44.10
2018-09-30T02:35:11.065Z,44.10
2018-09-30T02:37:38.163Z,44.10
2018-09-30T02:40:05.250Z,44.10
2018-09-30T02:42:32.352Z,44.10
2018-09-30T02:44:59.455Z,44.10
2018-09-30T02:47:26.576Z,44.10
2018-09-30T02:49:53.685Z,44.10
2018-09-30T02:52:20.799Z,44.10
2018-09-30T02:54:47.898Z,44.10
2018-09-30T02:57:14.986Z,44.10
2018-09-30T02:59:42.103Z,44.00
2018-09-30T03:02:09.179Z,44.00
2018-09-30T03:04:36.295Z,44.00
2018-09-30T03:09:12.043Z,44.00
2018-09-30T03:11:39.535Z,44.00
2018-09-30T03:14:06.781Z,44.10
2018-09-30T03:16:33.843Z,44.10
2018-09-30T03:19:00.919Z,44.00
2018-09-30T03:21:27.997Z,44.10
2018-09-30T03:23:55.100Z,44.10
2018-09-30T03:26:22.216Z,44.10
2018-09-30T03:28:49.301Z,44.10
2018-09-30T03:31:16.417Z,44.00
2018-09-30T03:33:43.524Z,44.00
2018-09-30T03:36:10.654Z,44.10
2018-09-30T03:38:37.724Z,44.00
2018-09-30T03:41:04.811Z,44.10
2018-09-30T03:43:31.908Z,44.00
2018-09-30T03:45:58.991Z,44.00
2018-09-30T03:48:26.093Z,44.00
2018-09-30T03:50:53.167Z,43.90
2018-09-30T03:53:20.268Z,44.10
2018-09-30T03:55:47.381Z,44.00
2018-09-30T03:58:14.446Z,44.10
2018-09-30T04:00:41.519Z,44.10
2018-09-30T04:03:08.624Z,44.00
2018-09-30T04:05:35.721Z,44.00
2018-09-30T04:08:02.847Z,44.00
2018-09-30T04:10:29.929Z,44.10
2018-09-30T04:12:57.131Z,44.00
2018-09-30T04:15:24.533Z,44.00
2018-09-30T04:17:51.628Z,44.00
2018-09-30T04:20:18.722Z,44.00
2018-09-30T04:22:45.815Z,43.90
2018-09-30T04:25:12.936Z,44.00
2018-09-30T04:27:40.047Z,44.00
2018-09-30T04:30:07.132Z,44.10
2018-09-30T04:32:34.191Z,44.10
2018-09-30T04:35:01.296Z,44.10
2018-09-30T04:37:28.403Z,44.10
2018-09-30T04:39:55.522Z,44.10
2018-09-30T04:42:22.599Z,43.90
2018-09-30T04:44:49.664Z,44.00
2018-09-30T04:47:16.744Z,44.00
2018-09-30T04:49:43.808Z,44.00
2018-09-30T04:52:10.921Z,43.90
2018-09-30T04:54:38.003Z,44.00
2018-09-30T04:57:05.095Z,43.90
2018-09-30T04:59:32.429Z,43.90
2018-09-30T05:01:59.556Z,43.80
2018-09-30T05:04:26.762Z,44.00
2018-09-30T05:06:53.831Z,43.90
2018-09-30T05:09:20.935Z,43.90
2018-09-30T05:11:48.019Z,44.00
2018-09-30T05:14:15.164Z,44.00
2018-09-30T05:16:42.269Z,44.00
2018-09-30T05:19:09.383Z,43.90
2018-09-30T05:21:36.491Z,43.90
2018-09-30T05:24:03.605Z,43.90
2018-09-30T05:26:30.696Z,44.00
2018-09-30T05:28:57.800Z,44.00
2018-09-30T05:31:25.155Z,44.00
2018-09-30T05:33:52.279Z,44.00
2018-09-30T05:36:19.359Z,44.00
2018-09-30T05:38:46.442Z,44.00
2018-09-30T05:41:13.555Z,44.00
2018-09-30T05:43:40.660Z,43.90
2018-09-30T05:46:08.243Z,44.00
2018-09-30T05:48:35.372Z,44.00
2018-09-30T05:51:02.482Z,44.00
2018-09-30T05:53:29.576Z,44.00
2018-09-30T05:55:56.713Z,44.00
2018-09-30T05:58:23.824Z,44.00
2018-09-30T06:00:50.891Z,44.00
2018-09-30T06:03:18.002Z,44.00
2018-09-30T06:05:45.118Z,44.00
2018-09-30T06:08:12.208Z,44.00
2018-09-30T06:10:39.308Z,44.00
2018-09-30T06:13:06.377Z,44.00
2018-09-30T06:15:33.459Z,44.00
2018-09-30T06:18:00.584Z,44.00
2018-09-30T06:20:27.678Z,44.00
2018-09-30T06:22:54.757Z,44.00
2018-09-30T06:25:21.882Z,44.00
2018-09-30T06:27:48.979Z,44.00
2018-09-30T06:30:16.572Z,44.00
2018-09-30T06:32:43.707Z,44.00
2018-09-30T06:35:10.807Z,44.00
2018-09-30T06:37:37.919Z,44.00
2018-09-30T06:40:05.020Z,44.10
2018-09-30T06:42:32.123Z,44.00
2018-09-30T06:44:59.247Z,44.00
2018-09-30T06:47:26.346Z,44.00
2018-09-30T06:49:53.441Z,44.00
2018-09-30T06:52:20.565Z,44.10
2018-09-30T06:54:47.683Z,44.00
2018-09-30T06:57:14.779Z,44.00
2018-09-30T06:59:41.879Z,44.00
2018-09-30T07:02:09.003Z,44.00
2018-09-30T07:04:36.096Z,44.00
2018-09-30T07:07:03.190Z,44.00
2018-09-30T07:09:30.299Z,44.00
2018-09-30T07:11:57.410Z,44.00
2018-09-30T07:14:24.503Z,44.00
2018-09-30T07:16:51.667Z,44.00
2018-09-30T07:19:18.724Z,44.00
2018-09-30T07:21:45.889Z,44.00
2018-09-30T07:24:13.003Z,44.00
2018-09-30T07:26:40.076Z,44.00
2018-09-30T07:29:07.187Z,44.00
2018-09-30T07:31:34.287Z,44.00
2018-09-30T07:34:01.404Z,44.00
2018-09-30T07:36:28.496Z,44.00
2018-09-30T07:38:55.811Z,44.00
2018-09-30T07:41:22.919Z,44.00
2018-09-30T07:43:50.002Z,44.00
2018-09-30T07:46:17.071Z,43.90
2018-09-30T07:48:44.167Z,43.90
2018-09-30T07:51:11.242Z,44.00
2018-09-30T07:53:38.346Z,43.90
2018-09-30T07:56:05.449Z,43.80
2018-09-30T07:58:32.559Z,44.00
2018-09-30T08:00:59.663Z,43.90
2018-09-30T08:03:26.783Z,43.80
2018-09-30T08:05:53.891Z,43.90
2018-09-30T08:08:20.988Z,43.80
2018-09-30T08:10:48.082Z,43.80
2018-09-30T08:13:15.435Z,43.80
2018-09-30T08:15:42.531Z,43.80
2018-09-30T08:18:09.615Z,43.80
2018-09-30T08:20:36.716Z,43.80
2018-09-30T08:23:03.825Z,43.90
2018-09-30T08:25:30.913Z,43.80
2018-09-30T08:27:58.025Z,43.80
2018-09-30T08:30:25.093Z,43.80
2018-09-30T08:32:52.194Z,43.90
2018-09-30T08:35:19.308Z,43.80
2018-09-30T08:37:52.275Z,43.90
2018-09-30T08:40:25.191Z,43.80
2018-09-30T08:42:52.316Z,43.90
2018-09-30T08:45:19.416Z,43.80
2018-09-30T08:47:46.563Z,43.80
2018-09-30T08:50:13.639Z,43.80
2018-09-30T08:52:40.758Z,43.80
2018-09-30T08:55:07.848Z,43.90
2018-09-30T08:57:34.939Z,43.80
2018-09-30T09:00:02.052Z,43.80
2018-09-30T09:02:29.131Z,43.90
2018-09-30T09:04:56.263Z,43.90
2018-09-30T09:07:23.732Z,43.90
2018-09-30T09:09:50.840Z,43.90
2018-09-30T09:12:17.966Z,43.90
2018-09-30T09:14:45.044Z,44.00
2018-09-30T09:17:12.147Z,43.90
2018-09-30T09:19:39.242Z,44.00
2018-09-30T09:22:06.344Z,44.00
2018-09-30T09:24:33.528Z,44.00
2018-09-30T09:27:00.700Z,43.90
2018-09-30T09:29:27.829Z,44.00
2018-09-30T09:31:54.940Z,44.00
2018-09-30T09:34:22.036Z,44.30
2018-09-30T09:36:49.147Z,43.90
2018-09-30T09:39:16.247Z,44.00
2018-09-30T09:41:43.331Z,44.00
2018-09-30T09:44:10.451Z,44.00
2018-09-30T09:46:37.544Z,44.00
2018-09-30T09:49:04.664Z,44.00
2018-09-30T09:51:31.760Z,44.00
2018-09-30T09:53:58.858Z,43.90
2018-09-30T09:56:25.999Z,43.90
2018-09-30T09:58:53.181Z,43.90
2018-09-30T10:01:20.215Z,44.00
2018-09-30T10:03:47.311Z,44.00
2018-09-30T10:06:14.392Z,44.00
2018-09-30T10:08:41.595Z,43.90
2018-09-30T10:11:08.689Z,44.00
2018-09-30T10:13:35.803Z,44.00
2018-09-30T10:16:02.912Z,44.00
2018-09-30T10:18:30.032Z,44.00
2018-09-30T10:20:57.167Z,44.10
2018-09-30T10:23:24.270Z,44.00
2018-09-30T10:25:51.346Z,43.90
2018-09-30T10:28:18.664Z,44.00
2018-09-30T10:30:45.784Z,43.90
2018-09-30T10:33:12.875Z,44.00
2018-09-30T10:35:40.211Z,44.00
2018-09-30T10:38:07.464Z,43.90
2018-09-30T10:40:34.525Z,44.00
2018-09-30T10:43:01.646Z,44.00
2018-09-30T10:45:28.742Z,44.00
2018-09-30T10:47:55.879Z,44.00
2018-09-30T10:50:22.975Z,43.90
2018-09-30T10:52:50.075Z,43.90
2018-09-30T10:55:17.208Z,44.00
2018-09-30T10:57:44.332Z,44.00
2018-09-30T11:00:11.452Z,44.00
2018-09-30T11:02:38.567Z,44.00
2018-09-30T11:05:05.653Z,44.00
2018-09-30T11:07:32.731Z,44.00
2018-09-30T11:09:59.901Z,44.00
2018-09-30T11:12:26.964Z,44.00
2018-09-30T11:14:54.056Z,44.00
2018-09-30T11:17:21.148Z,44.00
2018-09-30T11:19:48.235Z,44.10
2018-09-30T11:22:15.339Z,44.10
2018-09-30T11:24:42.460Z,44.00
2018-09-30T11:27:09.564Z,44.00
2018-09-30T11:29:36.653Z,44.00
2018-09-30T11:32:03.772Z,44.00
2018-09-30T11:34:30.889Z,43.90
2018-09-30T11:36:58.015Z,44.10
2018-09-30T11:39:25.110Z,44.00
2018-09-30T11:41:52.211Z,44.70
2018-09-30T11:44:19.315Z,44.00
2018-09-30T11:46:46.423Z,44.00
2018-09-30T11:49:13.520Z,44.00
2018-09-30T11:51:40.616Z,44.00
2018-09-30T11:54:07.712Z,44.00
2018-09-30T11:56:34.807Z,44.00
2018-09-30T11:59:01.888Z,44.00
2018-09-30T12:01:28.985Z,43.90
2018-09-30T12:03:56.142Z,44.00
2018-09-30T12:06:23.255Z,44.00
2018-09-30T12:08:50.348Z,44.00
2018-09-30T12:11:17.460Z,44.00
2018-09-30T12:13:44.573Z,44.00
2018-09-30T12:16:11.663Z,44.00
2018-09-30T12:18:38.787Z,44.00
2018-09-30T12:21:05.830Z,43.90
2018-09-30T12:23:32.928Z,43.90
2018-09-30T12:26:00.042Z,44.00
2018-09-30T12:28:27.139Z,44.00
2018-09-30T12:30:54.244Z,44.00
2018-09-30T12:33:21.349Z,43.90
2018-09-30T12:35:48.432Z,44.00
2018-09-30T12:38:15.540Z,44.00
2018-09-30T12:40:42.643Z,44.00
2018-09-30T12:43:09.749Z,43.90
2018-09-30T12:45:36.821Z,43.90
2018-09-30T12:48:03.923Z,44.00
2018-09-30T12:50:31.023Z,44.00
2018-09-30T12:52:58.135Z,44.00
2018-09-30T12:55:25.227Z,44.00
2018-09-30T12:57:52.377Z,43.80
2018-09-30T13:00:19.490Z,44.00
2018-09-30T13:02:46.636Z,44.00
2018-09-30T13:05:13.728Z,43.90
2018-09-30T13:07:40.850Z,43.90
2018-09-30T13:10:07.960Z,43.90
2018-09-30T13:12:35.055Z,44.00
2018-09-30T13:15:02.163Z,44.00
2018-09-30T13:17:29.251Z,44.00
2018-09-30T13:19:56.367Z,43.80
2018-09-30T13:22:23.466Z,44.00
2018-09-30T13:24:50.536Z,43.90
2018-09-30T13:27:17.667Z,44.00
2018-09-30T13:29:44.803Z,43.90
2018-09-30T13:32:11.891Z,44.00
2018-09-30T13:34:38.986Z,43.90
2018-09-30T13:37:06.087Z,44.00
2018-09-30T13:39:33.235Z,43.90
2018-09-30T13:42:00.322Z,43.90
2018-09-30T13:44:27.480Z,44.00
2018-09-30T13:46:54.575Z,43.90
2018-09-30T13:49:21.687Z,44.00
2018-09-30T13:51:48.791Z,44.00
2018-09-30T13:54:15.916Z,44.00
2018-09-30T13:56:43.011Z,43.90
2018-09-30T13:59:10.108Z,43.90
2018-09-30T14:01:37.188Z,44.00
2018-09-30T14:04:04.315Z,43.90
2018-09-30T14:06:31.615Z,44.00
2018-09-30T14:08:59.030Z,43.90
2018-09-30T14:11:26.123Z,43.90
2018-09-30T14:13:53.223Z,43.90
2018-09-30T14:16:20.299Z,43.90
2018-09-30T14:18:47.386Z,43.90
2018-09-30T14:21:14.475Z,43.90
2018-09-30T14:23:41.571Z,43.90
2018-09-30T14:26:08.682Z,43.80
2018-09-30T14:28:35.777Z,43.90
2018-09-30T14:31:02.925Z,43.90
2018-09-30T14:33:30.059Z,44.00
2018-09-30T14:35:57.145Z,43.80
2018-09-30T14:38:24.235Z,43.90
2018-09-30T14:40:51.343Z,43.90
2018-09-30T14:43:18.474Z,44.00
2018-09-30T14:45:45.544Z,43.90
2018-09-30T14:48:12.698Z,43.80
2018-09-30T14:50:39.720Z,44.00
2018-09-30T14:53:06.817Z,43.90
2018-09-30T14:55:33.899Z,43.90
2018-09-30T14:58:01.004Z,43.90
2018-09-30T15:00:28.120Z,43.90
2018-09-30T15:02:55.217Z,43.90
2018-09-30T15:05:22.319Z,43.90
2018-09-30T15:07:49.434Z,43.90
2018-09-30T15:10:16.537Z,43.90
2018-09-30T15:12:43.680Z,43.90
2018-09-30T15:15:10.818Z,43.90
2018-09-30T15:17:39.010Z,43.90
2018-09-30T15:20:06.116Z,44.00
2018-09-30T15:22:33.243Z,44.00
2018-09-30T15:25:00.519Z,44.00
2018-09-30T15:27:27.825Z,44.00
2018-09-30T15:29:54.959Z,44.00
2018-09-30T15:32:22.057Z,44.00
2018-09-30T15:34:49.163Z,43.90
2018-09-30T15:37:16.252Z,44.00
2018-09-30T15:39:43.719Z,44.00
2018-09-30T15:42:10.834Z,44.00
2018-09-30T15:44:37.920Z,44.00
2018-09-30T15:47:05.029Z,44.00
2018-09-30T15:49:32.124Z,44.00
2018-09-30T15:51:59.237Z,44.00
2018-09-30T15:54:26.408Z,44.00
2018-09-30T15:56:53.516Z,44.00
2018-09-30T15:59:20.592Z,44.00
2018-09-30T16:01:47.696Z,43.90
2018-09-30T16:04:14.787Z,44.00
2018-09-30T16:06:41.900Z,43.90
2018-09-30T16:09:09.007Z,43.80
2018-09-30T16:11:36.135Z,44.00
2018-09-30T16:14:03.258Z,43.90
2018-09-30T16:16:30.353Z,44.00
2018-09-30T16:18:57.562Z,43.90
2018-09-30T16:21:24.707Z,43.90
2018-09-30T16:23:51.843Z,43.90
2018-09-30T16:26:18.940Z,44.00
2018-09-30T16:28:46.023Z,43.80
2018-09-30T16:31:13.107Z,43.90
2018-09-30T16:33:40.263Z,43.90
2018-09-30T16:36:07.355Z,43.80
2018-09-30T16:38:34.471Z,44.00
2018-09-30T16:41:01.576Z,43.90
2018-09-30T16:43:28.671Z,43.80
2018-09-30T16:45:55.784Z,44.00
2018-09-30T16:48:22.887Z,43.90
2018-09-30T16:50:49.992Z,43.90
2018-09-30T16:53:17.091Z,43.90
2018-09-30T16:55:44.183Z,43.90
2018-09-30T16:58:11.292Z,43.90
2018-09-30T17:00:38.396Z,43.90
2018-09-30T17:03:05.510Z,44.00
2018-09-30T17:05:32.621Z,43.90
2018-09-30T17:07:59.738Z,43.90
2018-09-30T17:10:26.847Z,44.00
2018-09-30T17:12:53.949Z,44.00
2018-09-30T17:15:21.326Z,44.00
2018-09-30T17:17:48.434Z,44.00
2018-09-30T17:20:15.528Z,44.00
2018-09-30T17:22:42.600Z,44.00
2018-09-30T17:25:09.748Z,44.10
2018-09-30T17:27:36.890Z,44.00
2018-09-30T17:30:04.016Z,44.00
2018-09-30T17:32:31.107Z,44.10
2018-09-30T17:34:58.199Z,44.10
2018-09-30T17:37:25.279Z,44.10
2018-09-30T17:39:52.751Z,44.80
2018-09-30T17:42:19.849Z,44.10
2018-09-30T17:44:46.956Z,44.10
2018-09-30T17:47:14.091Z,44.10
2018-09-30T17:49:41.171Z,44.10
2018-09-30T17:52:08.267Z,44.00
2018-09-30T17:54:35.355Z,44.10
2018-09-30T17:57:02.439Z,44.10
2018-09-30T17:59:29.552Z,44.20
2018-09-30T18:01:56.702Z,44.20
2018-09-30T18:04:23.789Z,44.20
2018-09-30T18:06:50.927Z,44.20
2018-09-30T18:09:18.043Z,44.10
2018-09-30T18:11:45.283Z,44.30
2018-09-30T18:14:12.412Z,44.20
2018-09-30T18:16:39.511Z,44.20
2018-09-30T18:19:06.624Z,44.20
2018-09-30T18:21:33.744Z,44.20
2018-09-30T18:24:00.839Z,44.30
2018-09-30T18:26:27.918Z,44.20
2018-09-30T18:28:55.002Z,44.20
2018-09-30T18:31:22.095Z,44.30
2018-09-30T18:33:49.199Z,44.20
2018-09-30T18:36:16.288Z,44.20
2018-09-30T18:38:43.387Z,44.30
2018-09-30T18:41:10.479Z,44.30
2018-09-30T18:43:37.574Z,44.30
2018-09-30T18:46:04.656Z,44.30
2018-09-30T18:48:31.741Z,44.30
2018-09-30T18:50:58.866Z,44.30
2018-09-30T18:53:25.972Z,44.30
2018-09-30T18:55:53.123Z,44.30
2018-09-30T18:58:20.710Z,44.20
2018-09-30T19:00:47.843Z,44.20
2018-09-30T19:03:14.965Z,44.20
2018-09-30T19:05:42.103Z,44.30
2018-09-30T19:08:09.207Z,44.30
2018-09-30T19:10:36.300Z,44.30
2018-09-30T19:13:03.406Z,44.30
2018-09-30T19:15:30.520Z,44.30
2018-09-30T19:17:57.616Z,44.30
2018-09-30T19:20:24.753Z,44.40
2018-09-30T19:22:52.387Z,44.30
2018-09-30T19:25:19.502Z,44.40
2018-09-30T19:27:46.879Z,44.30
2018-09-30T19:30:14.058Z,44.30
2018-09-30T19:32:41.119Z,44.40
2018-09-30T19:35:08.251Z,44.30
2018-09-30T19:37:35.483Z,44.40
2018-09-30T19:40:02.727Z,44.40
2018-09-30T19:42:29.839Z,44.30
2018-09-30T19:44:56.944Z,44.40
2018-09-30T19:47:24.028Z,44.40
2018-09-30T19:49:51.131Z,44.40
2018-09-30T19:52:18.198Z,44.40
2018-09-30T19:54:45.275Z,44.30
2018-09-30T19:57:12.359Z,44.40
2018-09-30T19:59:39.456Z,44.40
2018-09-30T20:02:07.219Z,44.40
2018-09-30T20:04:34.326Z,44.50
2018-09-30T20:07:01.413Z,44.40
2018-09-30T20:09:28.583Z,44.40
2018-09-30T20:11:55.608Z,44.40
2018-09-30T20:14:22.692Z,44.40
2018-09-30T20:16:49.802Z,44.40
2018-09-30T20:19:16.883Z,44.40
2018-09-30T20:21:44.016Z,44.50
2018-09-30T20:24:11.103Z,44.40
2018-09-30T20:26:38.171Z,44.40
2018-09-30T20:29:05.262Z,44.40
2018-09-30T20:31:32.411Z,44.40
2018-09-30T20:33:59.512Z,44.50
2018-09-30T20:36:26.616Z,44.50
2018-09-30T20:38:53.708Z,44.40
2018-09-30T20:41:20.805Z,44.40
2018-09-30T20:43:48.252Z,44.40
2018-09-30T20:46:15.326Z,44.50
2018-09-30T20:48:42.488Z,44.40
2018-09-30T20:51:09.516Z,44.50
2018-09-30T20:53:36.616Z,44.40
2018-09-30T20:56:03.753Z,44.40
2018-09-30T20:58:30.818Z,44.40
2018-09-30T21:00:57.908Z,44.40
2018-09-30T21:03:25.049Z,44.40
2018-09-30T21:06:29.736Z,44.50
2018-09-30T21:08:56.855Z,44.40
2018-09-30T21:11:23.960Z,44.50
2018-09-30T21:13:51.038Z,44.40
2018-09-30T21:16:18.135Z,44.50
2018-09-30T21:18:45.434Z,44.40
2018-09-30T21:21:12.593Z,44.40
2018-09-30T21:23:39.763Z,44.40
2018-09-30T21:26:06.871Z,44.40
2018-09-30T21:28:33.984Z,44.40
2018-09-30T21:31:01.071Z,44.40
2018-09-30T21:33:28.199Z,44.40
2018-09-30T21:35:55.404Z,44.40
2018-09-30T21:38:22.500Z,44.40
2018-09-30T21:40:49.567Z,44.40
2018-09-30T21:43:17.558Z,44.40
2018-09-30T21:45:44.703Z,44.40
2018-09-30T21:48:12.942Z,45.10
2018-09-30T21:50:40.070Z,44.40
2018-09-30T21:53:07.170Z,44.40
2018-09-30T21:55:34.271Z,44.40
2018-09-30T21:58:01.584Z,44.40
2018-09-30T22:00:34.373Z,44.40
2018-09-30T22:03:01.506Z,44.30
2018-09-30T22:05:29.062Z,44.50
2018-09-30T22:07:56.164Z,44.40
2018-09-30T22:10:23.395Z,44.40
2018-09-30T22:12:50.545Z,44.40
2018-09-30T22:15:17.654Z,44.40
2018-09-30T22:17:44.863Z,44.40
2018-09-30T22:20:11.933Z,44.40
2018-09-30T22:22:39.183Z,45.10
2018-09-30T22:25:06.303Z,44.40
2018-09-30T22:27:33.400Z,44.40
2018-09-30T22:30:00.500Z,44.40
2018-09-30T22:32:27.583Z,44.40
2018-09-30T22:34:55.189Z,44.40
2018-09-30T22:37:22.256Z,44.40
2018-09-30T22:39:49.363Z,44.40
2018-09-30T22:42:16.478Z,44.40
2018-09-30T22:44:43.584Z,44.40
2018-09-30T22:47:10.719Z,44.40
2018-09-30T22:49:37.956Z,44.50
2018-09-30T22:52:05.040Z,44.40
2018-09-30T22:54:32.128Z,44.40
2018-09-30T22:56:59.239Z,44.40
2018-09-30T22:59:26.346Z,44.50
2018-09-30T23:01:53.444Z,44.50
2018-09-30T23:04:20.548Z,44.50
2018-09-30T23:06:47.632Z,44.50
2018-09-30T23:09:14.750Z,44.50
2018-09-30T23:11:41.879Z,44.50
2018-09-30T23:14:08.967Z,44.40
2018-09-30T23:16:36.069Z,44.50
2018-09-30T23:19:03.139Z,44.40
2018-09-30T23:21:30.338Z,44.50
2018-09-30T23:23:57.431Z,44.50
2018-09-30T23:26:24.524Z,44.50
2018-09-30T23:28:51.588Z,44.50
2018-09-30T23:31:18.681Z,44.40
2018-09-30T23:33:45.812Z,44.40
2018-09-30T23:36:13.536Z,44.40
2018-09-30T23:38:40.642Z,44.50
2018-09-30T23:41:07.732Z,44.50
2018-09-30T23:43:34.840Z,44.50
2018-09-30T23:46:01.911Z,44.50
2018-09-30T23:48:28.987Z,44.50
2018-09-30T23:50:56.079Z,44.50
2018-09-30T23:53:23.151Z,44.60
2018-09-30T23:55:50.393Z,44.50
2018-09-30T23:58:17.519Z,44.50
